Time;durP1;ratioP1;P1;durP2;ratioP2;P2;SDS_P1;SDS_P2;PMS_P1;PMS_P2;Temp;Humidity;BMP_temperature;BMP_pressure;BME280_temperature;BME280_humidity;BME280_pressure;Samples;Min_cycle;Max_cycle;Signal;HPM_P1;HPM_P2
2021/01/13 00:00:06;;;;;;;23.30;11.25;;;7.40;99.90;;;;;;4994756;28;20205;-83
2021/01/13 00:02:33;;;;;;;9.85;4.43;;;7.40;99.90;;;;;;4994416;28;20196;-82
2021/01/13 00:04:59;;;;;;;37.95;17.23;;;7.40;99.90;;;;;;4994631;28;20556;-81
2021/01/13 00:07:25;;;;;;;24.77;10.90;;;7.40;99.90;;;;;;4994442;28;20213;-82
2021/01/13 00:09:51;;;;;;;50.17;19.15;;;7.40;99.90;;;;;;4994216;28;20200;-82
2021/01/13 00:12:19;;;;;;;28.73;12.68;;;7.40;99.90;;;;;;4994289;28;20661;-82
2021/01/13 00:14:45;;;;;;;20.30;9.85;;;7.50;99.90;;;;;;4994324;28;20233;-82
2021/01/13 00:17:11;;;;;;;42.88;18.13;;;7.40;99.90;;;;;;4994376;28;20204;-81
2021/01/13 00:19:38;;;;;;;31.20;14.52;;;7.40;99.90;;;;;;4994345;28;20200;-82
2021/01/13 00:22:05;;;;;;;19.77;8.55;;;7.30;99.90;;;;;;4994171;28;20197;-82
2021/01/13 00:24:31;;;;;;;16.98;7.40;;;7.30;99.90;;;;;;4994501;28;20208;-82
2021/01/13 00:26:59;;;;;;;31.85;12.75;;;7.30;99.90;;;;;;4994205;28;20193;-80
2021/01/13 00:29:27;;;;;;;18.95;9.77;;;7.30;99.90;;;;;;4994151;28;20197;-81
2021/01/13 00:31:56;;;;;;;28.13;12.80;;;7.30;99.90;;;;;;4994080;28;20247;-82
2021/01/13 00:34:22;;;;;;;21.42;10.80;;;7.20;99.90;;;;;;4994211;28;20240;-82
2021/01/13 00:36:49;;;;;;;6.85;4.85;;;7.10;99.90;;;;;;4993836;28;20228;-82
2021/01/13 00:39:15;;;;;;;17.85;5.50;;;7.10;99.90;;;;;;4993574;28;20204;-82
2021/01/13 00:41:42;;;;;;;12.63;5.13;;;7.10;99.90;;;;;;4993914;28;20207;-82
2021/01/13 00:44:09;;;;;;;12.82;5.18;;;7.20;99.90;;;;;;4993771;28;20197;-82
2021/01/13 00:46:37;;;;;;;12.80;5.82;;;7.20;99.90;;;;;;4993666;28;20237;-81
2021/01/13 00:49:04;;;;;;;10.25;4.80;;;7.20;99.90;;;;;;4993849;28;20263;-81
2021/01/13 00:51:39;;;;;;;19.40;8.75;;;7.20;99.90;;;;;;4993838;28;20201;-82
2021/01/13 00:54:07;;;;;;;17.50;5.13;;;7.20;99.90;;;;;;4993778;28;20280;-82
2021/01/13 00:56:34;;;;;;;10.23;4.25;;;7.10;99.90;;;;;;4993911;28;20510;-82
2021/01/13 00:59:01;;;;;;;15.40;4.88;;;7.20;99.90;;;;;;4993909;28;20558;-81
2021/01/13 01:01:28;;;;;;;9.65;4.13;;;7.10;99.90;;;;;;4993850;28;20207;-81
2021/01/13 01:03:56;;;;;;;7.03;3.83;;;7.10;99.90;;;;;;4993732;28;20197;-82
2021/01/13 01:06:23;;;;;;;6.45;4.40;;;7.10;99.90;;;;;;4993838;28;20217;-82
2021/01/13 01:08:50;;;;;;;13.45;5.00;;;7.10;99.90;;;;;;4993863;28;20661;-82
2021/01/13 01:11:19;;;;;;;12.80;3.72;;;7.00;99.90;;;;;;4993600;28;20201;-81
2021/01/13 01:13:45;;;;;;;12.27;4.63;;;7.00;99.90;;;;;;4993585;28;20224;-82
2021/01/13 01:16:11;;;;;;;12.95;4.35;;;7.00;99.90;;;;;;4994125;28;20219;-81
2021/01/13 01:18:38;;;;;;;8.68;3.95;;;6.80;99.90;;;;;;4993557;28;20205;-82
2021/01/13 01:21:08;;;;;;;7.82;4.13;;;6.80;99.90;;;;;;4993648;28;20208;-82
2021/01/13 01:23:34;;;;;;;10.18;4.40;;;6.80;99.90;;;;;;4993754;28;20204;-82
2021/01/13 01:26:01;;;;;;;8.95;4.00;;;6.80;99.90;;;;;;4993647;28;20197;-82
2021/01/13 01:28:27;;;;;;;7.28;4.22;;;6.80;99.90;;;;;;4993500;28;20197;-81
2021/01/13 01:30:53;;;;;;;8.10;3.92;;;6.90;99.90;;;;;;4993694;28;20243;-80
2021/01/13 01:33:19;;;;;;;8.30;3.75;;;6.80;99.90;;;;;;4993570;28;20680;-83
2021/01/13 01:35:46;;;;;;;8.32;3.80;;;6.70;99.90;;;;;;4993589;28;20197;-82
2021/01/13 01:38:13;;;;;;;10.45;4.13;;;6.80;99.90;;;;;;4993479;28;20212;-82
2021/01/13 01:40:39;;;;;;;10.18;4.15;;;6.80;99.90;;;;;;4993228;28;20220;-80
2021/01/13 01:43:05;;;;;;;7.40;5.03;;;6.90;99.90;;;;;;4993231;28;20201;-82
2021/01/13 01:45:32;;;;;;;8.85;4.25;;;7.00;99.90;;;;;;4993316;28;20629;-82
2021/01/13 01:48:15;;;;;;;11.40;4.22;;;6.90;99.90;;;;;;4993251;28;20243;-81
2021/01/13 01:50:43;;;;;;;6.80;4.03;;;6.90;99.90;;;;;;4995450;28;20201;-82
2021/01/13 01:53:22;;;;;;;9.85;5.88;;;6.90;99.90;;;;;;4996976;28;20543;-81
2021/01/13 01:56:00;;;;;;;8.75;4.35;;;6.90;99.90;;;;;;4997088;28;20262;-81
2021/01/13 01:58:28;;;;;;;7.10;4.28;;;6.80;99.90;;;;;;4996657;28;20201;-81
2021/01/13 02:00:56;;;;;;;8.82;3.88;;;6.80;99.90;;;;;;4996758;28;20247;-81
2021/01/13 02:03:24;;;;;;;7.57;4.45;;;6.90;99.90;;;;;;4996661;28;20205;-82
2021/01/13 02:05:57;;;;;;;10.45;4.75;;;6.90;99.90;;;;;;4996814;28;20208;-82
2021/01/13 02:08:25;;;;;;;9.57;5.15;;;6.90;99.90;;;;;;4996658;28;20201;-82
2021/01/13 02:10:52;;;;;;;8.15;4.43;;;6.90;99.90;;;;;;4996816;28;20192;-82
2021/01/13 02:13:20;;;;;;;12.68;5.03;;;6.90;99.90;;;;;;4996550;28;20251;-81
2021/01/13 02:15:48;;;;;;;6.10;5.25;;;6.90;99.90;;;;;;4996434;28;20283;-83
2021/01/13 02:18:17;;;;;;;9.27;4.75;;;6.90;99.90;;;;;;4996534;28;20204;-83
2021/01/13 02:20:46;;;;;;;14.45;4.88;;;6.90;99.90;;;;;;4996560;28;20201;-81
2021/01/13 02:23:30;;;;;;;9.57;4.60;;;6.90;99.90;;;;;;4996565;28;20553;-82
2021/01/13 02:26:35;;;;;;;7.18;4.50;;;7.00;99.90;;;;;;4996347;28;20208;-82
2021/01/13 02:29:16;;;;;;;9.52;5.05;;;6.90;99.90;;;;;;4996055;28;20204;-82
2021/01/13 02:31:49;;;;;;;7.68;4.75;;;6.80;99.90;;;;;;4996196;28;20232;-82
2021/01/13 02:34:24;;;;;;;9.13;3.90;;;6.80;99.90;;;;;;4996384;28;20228;-82
2021/01/13 02:37:23;;;;;;;9.40;4.93;;;6.80;99.90;;;;;;4996169;28;20220;-81
2021/01/13 02:39:53;;;;;;;18.50;5.93;;;6.80;99.90;;;;;;4996017;28;20652;-81
2021/01/13 02:42:23;;;;;;;9.07;4.75;;;6.70;99.90;;;;;;4996224;28;20204;-82
2021/01/13 02:45:11;;;;;;;11.48;4.45;;;6.80;99.90;;;;;;4995929;28;20236;-81
2021/01/13 02:48:06;;;;;;;7.72;4.18;;;6.80;99.90;;;;;;4995794;28;20205;-80
2021/01/13 02:50:34;;;;;;;5.95;3.88;;;6.80;99.90;;;;;;4993562;28;20201;-82
2021/01/13 02:53:30;;;;;;;9.07;4.07;;;6.70;99.90;;;;;;4995858;28;20197;-82
2021/01/13 02:56:07;;;;;;;12.63;4.82;;;6.70;99.90;;;;;;4995833;28;20203;-82
2021/01/13 02:58:36;;;;;;;14.48;5.75;;;6.80;99.90;;;;;;4995652;28;20279;-82
2021/01/13 03:01:05;;;;;;;8.50;3.90;;;6.60;99.90;;;;;;4995547;28;20224;-82
2021/01/13 03:03:33;;;;;;;8.32;4.68;;;6.70;99.90;;;;;;4995823;28;20224;-82
2021/01/13 03:06:07;;;;;;;10.65;4.28;;;6.70;99.90;;;;;;4996129;28;20205;-82
2021/01/13 03:08:54;;;;;;;9.57;4.05;;;6.70;99.90;;;;;;4995458;28;20204;-82
2021/01/13 03:11:21;;;;;;;7.28;4.35;;;6.60;99.90;;;;;;4995686;28;20197;-82
2021/01/13 03:13:48;;;;;;;5.32;4.10;;;6.70;99.90;;;;;;4995392;28;20201;-82
2021/01/13 03:16:17;;;;;;;9.35;4.25;;;6.80;99.90;;;;;;4995363;28;20320;-80
2021/01/13 03:18:56;;;;;;;12.50;4.60;;;6.60;99.90;;;;;;4995670;28;20553;-82
2021/01/13 03:21:27;;;;;;;11.20;4.55;;;6.50;99.90;;;;;;4995655;28;20196;-81
2021/01/13 03:24:04;;;;;;;11.25;5.13;;;6.40;99.90;;;;;;4995270;28;20231;-81
2021/01/13 03:26:35;;;;;;;10.85;4.90;;;6.40;99.90;;;;;;4995158;28;20644;-82
2021/01/13 03:29:02;;;;;;;7.63;4.88;;;6.30;99.90;;;;;;4995463;28;20200;-81
2021/01/13 03:31:31;;;;;;;12.15;5.55;;;6.30;99.90;;;;;;4995310;28;20193;-82
2021/01/13 03:34:26;;;;;;;11.18;5.25;;;6.30;99.90;;;;;;4995103;28;20225;-82
2021/01/13 03:37:07;;;;;;;12.20;6.15;;;6.30;99.90;;;;;;4994823;28;20221;-81
2021/01/13 03:39:36;;;;;;;8.23;4.65;;;6.30;99.90;;;;;;4994961;28;20280;-82
2021/01/13 03:42:11;;;;;;;9.90;5.00;;;6.40;99.90;;;;;;4994931;28;20197;-82
2021/01/13 03:44:40;;;;;;;6.70;3.75;;;6.40;99.90;;;;;;4994712;28;20585;-80
2021/01/13 03:47:53;;;;;;;12.57;4.38;;;6.40;99.90;;;;;;4994870;28;20200;-81
2021/01/13 03:50:22;;;;;;;12.23;4.80;;;6.20;99.90;;;;;;4994655;28;20656;-82
2021/01/13 03:53:00;;;;;;;9.50;4.40;;;6.20;99.90;;;;;;4994845;28;20224;-81
2021/01/13 03:55:29;;;;;;;8.50;4.22;;;6.10;99.90;;;;;;4994505;28;20318;-82
2021/01/13 03:58:18;;;;;;;7.93;4.30;;;6.30;99.90;;;;;;4994479;28;20197;-82
2021/01/13 04:01:04;;;;;;;12.23;5.13;;;6.50;99.90;;;;;;4994505;28;20208;-82
2021/01/13 04:03:34;;;;;;;10.68;4.05;;;6.50;99.90;;;;;;4994531;28;20196;-82
2021/01/13 04:06:06;;;;;;;14.30;4.65;;;6.60;99.90;;;;;;4994548;28;20204;-81
2021/01/13 04:08:37;;;;;;;11.23;4.88;;;6.50;99.90;;;;;;4994330;28;20209;-81
2021/01/13 04:11:06;;;;;;;6.10;4.55;;;6.60;99.90;;;;;;4993973;28;20230;-81
2021/01/13 04:13:40;;;;;;;9.70;4.72;;;6.60;99.90;;;;;;4993909;28;20229;-82
2021/01/13 04:16:09;;;;;;;8.77;4.22;;;6.60;99.90;;;;;;4994504;28;20200;-81
2021/01/13 04:18:37;;;;;;;11.30;4.50;;;6.70;99.90;;;;;;4994366;28;20193;-82
2021/01/13 04:21:05;;;;;;;8.65;4.15;;;6.80;99.90;;;;;;4994181;28;20200;-81
2021/01/13 04:23:33;;;;;;;12.07;4.80;;;6.70;99.90;;;;;;4994278;28;20201;-82
2021/01/13 04:26:00;;;;;;;6.68;4.68;;;6.80;99.90;;;;;;4994204;28;20221;-82
2021/01/13 04:28:27;;;;;;;7.10;3.72;;;6.80;99.90;;;;;;4994510;28;20276;-82
2021/01/13 04:30:55;;;;;;;10.60;4.57;;;6.80;99.90;;;;;;4994207;28;20197;-80
2021/01/13 04:33:22;;;;;;;9.20;4.75;;;6.70;99.90;;;;;;4994074;28;20197;-81
2021/01/13 04:35:50;;;;;;;16.10;4.40;;;6.60;99.90;;;;;;4993854;28;20225;-81
2021/01/13 04:38:23;;;;;;;18.67;4.70;;;6.70;99.90;;;;;;4994209;28;20197;-81
2021/01/13 04:40:54;;;;;;;10.45;4.15;;;6.60;99.90;;;;;;4994051;28;20251;-83
2021/01/13 04:43:24;;;;;;;9.35;5.68;;;6.60;99.90;;;;;;4994172;28;20223;-81
2021/01/13 04:45:51;;;;;;;11.18;4.82;;;6.60;99.90;;;;;;4993851;28;20232;-81
2021/01/13 04:48:19;;;;;;;11.07;3.90;;;6.70;99.90;;;;;;4993836;28;20193;-82
2021/01/13 04:50:47;;;;;;;9.45;4.35;;;6.60;99.90;;;;;;4993889;28;20201;-81
2021/01/13 04:53:17;;;;;;;5.47;3.40;;;6.70;99.90;;;;;;4993990;28;20201;-82
2021/01/13 04:55:53;;;;;;;9.20;3.58;;;6.70;99.90;;;;;;4993680;28;20715;-82
2021/01/13 04:58:55;;;;;;;5.13;4.22;;;6.70;99.90;;;;;;4993850;28;20200;-81
2021/01/13 05:01:52;;;;;;;10.30;5.07;;;6.60;99.90;;;;;;4993787;28;20192;-82
2021/01/13 05:04:59;;;;;;;5.72;4.38;;;6.50;99.90;;;;;;4993858;28;20652;-81
2021/01/13 05:07:32;;;;;;;9.20;3.92;;;6.60;99.90;;;;;;4993591;28;20220;-81
2021/01/13 05:10:05;;;;;;;10.73;5.05;;;6.60;99.90;;;;;;4993750;28;20197;-81
2021/01/13 05:12:46;;;;;;;7.10;3.90;;;6.60;99.90;;;;;;4993687;28;20207;-82
2021/01/13 05:15:16;;;;;;;6.32;3.95;;;6.60;99.90;;;;;;4993577;28;20225;-82
2021/01/13 05:18:01;;;;;;;6.90;4.50;;;6.50;99.90;;;;;;4993700;28;20255;-82
2021/01/13 05:20:30;;;;;;;10.73;5.07;;;6.60;99.90;;;;;;4993832;28;20197;-82
2021/01/13 05:22:57;;;;;;;7.72;3.90;;;6.70;99.90;;;;;;4993658;28;20213;-82
2021/01/13 05:25:40;;;;;;;10.95;4.80;;;6.60;99.90;;;;;;4997197;28;20193;-80
2021/01/13 05:28:11;;;;;;;7.70;4.85;;;6.50;99.90;;;;;;4997721;28;20197;-82
2021/01/13 05:30:40;;;;;;;8.45;4.60;;;6.50;99.90;;;;;;4997799;28;20569;-82
2021/01/13 05:33:12;;;;;;;12.77;4.70;;;6.50;99.90;;;;;;4997317;28;20201;-82
2021/01/13 05:35:41;;;;;;;7.80;4.90;;;6.50;99.90;;;;;;4997147;28;20225;-81
2021/01/13 05:38:19;;;;;;;9.50;5.80;;;6.50;99.90;;;;;;4997413;28;20224;-82
2021/01/13 05:40:48;;;;;;;11.38;5.20;;;6.50;99.90;;;;;;4997116;28;20208;-82
2021/01/13 05:43:16;;;;;;;14.77;5.82;;;6.50;99.90;;;;;;4996966;28;20193;-81
2021/01/13 05:45:43;;;;;;;10.73;5.35;;;6.60;99.90;;;;;;4996527;28;20228;-82
2021/01/13 05:48:20;;;;;;;12.43;6.13;;;6.60;99.90;;;;;;4996865;28;20196;-81
2021/01/13 05:50:47;;;;;;;8.77;4.70;;;6.60;99.90;;;;;;4996882;28;20204;-82
2021/01/13 05:53:14;;;;;;;10.35;5.35;;;6.60;99.90;;;;;;4996873;28;20205;-82
2021/01/13 05:55:51;;;;;;;11.55;7.10;;;6.60;99.90;;;;;;4996807;28;20228;-81
2021/01/13 05:58:26;;;;;;;14.00;4.78;;;6.60;99.90;;;;;;4996995;28;20205;-81
2021/01/13 06:00:54;;;;;;;11.13;4.70;;;6.60;99.90;;;;;;4996910;28;20208;-80
2021/01/13 06:03:26;;;;;;;6.43;4.05;;;6.60;99.90;;;;;;4996690;28;20568;-81
2021/01/13 06:05:55;;;;;;;9.55;5.15;;;6.70;99.90;;;;;;4996593;28;20201;-82
2021/01/13 06:08:31;;;;;;;9.45;4.00;;;6.60;99.90;;;;;;4996665;28;20197;-82
2021/01/13 06:11:02;;;;;;;8.32;4.00;;;6.50;99.90;;;;;;4996676;28;20196;-82
2021/01/13 06:13:31;;;;;;;7.32;4.00;;;6.60;99.90;;;;;;4996607;28;20556;-82
2021/01/13 06:16:00;;;;;;;7.93;3.95;;;6.60;99.90;;;;;;4996577;28;20228;-81
2021/01/13 06:18:27;;;;;;;7.68;4.10;;;6.40;99.90;;;;;;4996736;28;20197;-81
2021/01/13 06:20:57;;;;;;;8.10;3.33;;;6.50;99.90;;;;;;4996344;28;20197;-82
2021/01/13 06:23:26;;;;;;;9.05;4.40;;;6.50;99.90;;;;;;4996423;28;20197;-82
2021/01/13 06:25:54;;;;;;;8.60;5.15;;;6.50;99.90;;;;;;4996546;28;20197;-82
2021/01/13 06:28:26;;;;;;;5.85;4.10;;;6.50;99.90;;;;;;4996418;28;20732;-81
2021/01/13 06:31:05;;;;;;;6.32;4.63;;;6.60;99.90;;;;;;4996280;28;20710;-81
2021/01/13 06:34:00;;;;;;;11.20;4.53;;;6.50;99.90;;;;;;4996192;28;20205;-82
2021/01/13 06:36:31;;;;;;;7.68;3.65;;;6.50;99.90;;;;;;4995404;28;20221;-81
2021/01/13 06:38:59;;;;;;;10.30;3.75;;;6.30;99.90;;;;;;4996026;28;20201;-81
2021/01/13 06:41:26;;;;;;;5.82;2.80;;;6.40;99.90;;;;;;4996069;28;20201;-82
2021/01/13 06:44:04;;;;;;;5.22;3.13;;;6.40;99.90;;;;;;4995941;28;20224;-80
2021/01/13 06:46:32;;;;;;;3.13;2.80;;;6.50;99.90;;;;;;4995647;28;20259;-81
2021/01/13 06:49:12;;;;;;;10.02;4.30;;;6.50;99.90;;;;;;4995998;28;20620;-82
2021/01/13 06:51:43;;;;;;;7.45;3.47;;;6.50;99.90;;;;;;4996044;28;20200;-85
2021/01/13 06:54:11;;;;;;;7.88;4.20;;;6.50;99.90;;;;;;4995801;28;20197;-85
2021/01/13 06:56:46;;;;;;;6.32;3.90;;;6.60;99.90;;;;;;4995775;28;20201;-85
2021/01/13 06:59:14;;;;;;;6.95;4.70;;;6.70;99.90;;;;;;4995751;28;20223;-86
2021/01/13 07:01:51;;;;;;;7.07;4.80;;;6.80;99.90;;;;;;4995689;28;20204;-85
2021/01/13 07:04:18;;;;;;;8.57;5.70;;;6.80;99.90;;;;;;4995727;28;20200;-86
2021/01/13 07:06:58;;;;;;;12.18;5.10;;;6.80;99.90;;;;;;4995350;28;20759;-81
2021/01/13 07:09:35;;;;;;;13.10;6.50;;;6.70;99.90;;;;;;4994917;28;20217;-81
2021/01/13 07:12:08;;;;;;;11.45;6.63;;;6.70;99.90;;;;;;4981059;28;20242;-81
2021/01/13 07:14:38;;;;;;;15.35;6.15;;;6.70;99.90;;;;;;4982730;28;20225;-81
2021/01/13 07:17:08;;;;;;;10.07;6.22;;;6.80;99.90;;;;;;4983318;28;20197;-80
2021/01/13 07:19:36;;;;;;;12.70;6.97;;;6.80;99.90;;;;;;4984909;28;20189;-81
2021/01/13 07:22:04;;;;;;;8.07;5.80;;;6.80;99.90;;;;;;4995175;28;20197;-81
2021/01/13 07:24:30;;;;;;;6.18;5.57;;;6.70;99.90;;;;;;4995165;28;20208;-81
2021/01/13 07:26:57;;;;;;;10.10;5.80;;;6.70;99.90;;;;;;4995278;28;20235;-81
2021/01/13 07:29:25;;;;;;;13.85;5.75;;;6.70;99.90;;;;;;4994998;28;20649;-82
2021/01/13 07:31:55;;;;;;;11.68;6.32;;;6.70;99.90;;;;;;4994969;28;20205;-81
2021/01/13 07:34:29;;;;;;;6.57;5.25;;;6.70;99.90;;;;;;4995018;28;20229;-81
2021/01/13 07:36:59;;;;;;;13.30;6.82;;;6.70;99.90;;;;;;4991744;28;20220;-81
2021/01/13 07:39:58;;;;;;;12.90;6.07;;;6.80;99.90;;;;;;4994883;28;20653;-81
2021/01/13 07:42:34;;;;;;;19.73;6.38;;;6.80;99.90;;;;;;4994730;28;20197;-81
2021/01/13 07:45:05;;;;;;;14.02;6.93;;;6.70;99.90;;;;;;4994652;28;20660;-81
2021/01/13 07:47:56;;;;;;;11.75;7.10;;;6.70;99.90;;;;;;4991083;28;20194;-81
2021/01/13 07:50:22;;;;;;;10.48;5.90;;;6.70;99.90;;;;;;4982695;28;20194;-83
2021/01/13 07:52:50;;;;;;;9.80;6.85;;;6.70;99.90;;;;;;4975306;28;20205;-81
2021/01/13 07:55:19;;;;;;;6.82;6.10;;;6.70;99.90;;;;;;4975360;28;20229;-82
2021/01/13 07:57:50;;;;;;;12.80;7.47;;;6.70;99.90;;;;;;4975220;28;20205;-81
2021/01/13 08:00:27;;;;;;;9.68;6.60;;;6.60;99.90;;;;;;4975109;28;20202;-83
2021/01/13 08:03:29;;;;;;;12.52;7.60;;;6.80;99.90;;;;;;4975009;28;20293;-83
2021/01/13 08:06:27;;;;;;;14.20;6.80;;;7.00;99.90;;;;;;4988371;28;20216;-82
2021/01/13 08:09:22;;;;;;;8.90;6.50;;;7.00;99.90;;;;;;4988733;28;20194;-82
2021/01/13 08:12:33;;;;;;;12.73;6.70;;;7.00;99.90;;;;;;4982528;28;20190;-82
2021/01/13 08:15:38;;;;;;;17.27;7.00;;;7.10;99.90;;;;;;4992039;28;20242;-83
2021/01/13 08:18:49;;;;;;;19.73;7.30;;;7.10;99.90;;;;;;4984796;28;20193;-83
2021/01/13 08:21:24;;;;;;;10.07;7.18;;;7.10;99.90;;;;;;4960883;28;20193;-82
2021/01/13 08:23:56;;;;;;;8.85;7.38;;;7.00;99.90;;;;;;4985031;28;20196;-83
2021/01/13 08:26:23;;;;;;;15.25;7.53;;;6.90;99.90;;;;;;4985584;28;20198;-82
2021/01/13 08:28:51;;;;;;;10.65;6.95;;;6.80;99.90;;;;;;4986166;28;20533;-84
2021/01/13 08:31:23;;;;;;;10.57;7.70;;;6.90;99.90;;;;;;4983734;28;20289;-82
2021/01/13 08:34:01;;;;;;;15.32;7.00;;;6.90;99.90;;;;;;4992497;28;20197;-82
2021/01/13 08:36:29;;;;;;;15.82;8.05;;;6.90;99.90;;;;;;4974605;28;20229;-85
2021/01/13 08:39:06;;;;;;;10.68;6.35;;;7.00;99.90;;;;;;4974734;28;20204;-84
2021/01/13 08:41:33;;;;;;;12.75;6.90;;;7.00;99.90;;;;;;4974630;28;20220;-83
2021/01/13 08:44:03;;;;;;;17.70;7.47;;;6.90;99.90;;;;;;4974730;28;20205;-82
2021/01/13 08:46:48;;;;;;;18.10;6.80;;;7.00;99.90;;;;;;4974381;28;20296;-81
2021/01/13 08:49:23;;;;;;;8.70;6.90;;;7.00;99.90;;;;;;4974464;28;20255;-81
2021/01/13 08:52:12;;;;;;;15.07;6.78;;;6.90;99.90;;;;;;4974328;28;20204;-82
2021/01/13 08:54:41;;;;;;;18.77;7.35;;;6.90;99.90;;;;;;4981796;28;20227;-81
2021/01/13 08:57:08;;;;;;;16.52;7.43;;;6.70;99.90;;;;;;4993863;28;20197;-81
2021/01/13 08:59:42;;;;;;;9.82;7.00;;;6.60;99.90;;;;;;4995742;28;20283;-81
2021/01/13 09:02:11;;;;;;;12.20;7.80;;;6.60;99.90;;;;;;4997902;28;20203;-81
2021/01/13 09:04:50;;;;;;;10.27;6.78;;;6.70;99.90;;;;;;4997807;28;20296;-81
2021/01/13 09:07:19;;;;;;;12.65;7.07;;;6.80;99.90;;;;;;4997592;28;20303;-81
2021/01/13 09:09:58;;;;;;;14.23;6.70;;;6.80;99.90;;;;;;4997640;28;20680;-81
2021/01/13 09:12:36;;;;;;;14.63;7.68;;;6.90;99.90;;;;;;4997707;28;20236;-82
2021/01/13 09:15:25;;;;;;;13.25;7.60;;;7.00;99.90;;;;;;4997489;28;20590;-81
2021/01/13 09:17:54;;;;;;;15.52;8.40;;;6.90;99.90;;;;;;4997451;28;20197;-81
2021/01/13 09:20:23;;;;;;;10.25;8.02;;;7.00;99.90;;;;;;4997698;28;20251;-81
2021/01/13 09:22:52;;;;;;;10.48;6.85;;;7.10;99.90;;;;;;4997442;28;20205;-81
2021/01/13 09:25:21;;;;;;;20.85;7.32;;;7.10;99.90;;;;;;4997678;28;20204;-81
2021/01/13 09:27:49;;;;;;;15.30;7.20;;;6.90;99.90;;;;;;4997405;28;20201;-81
2021/01/13 09:30:38;;;;;;;9.48;7.43;;;6.90;99.90;;;;;;4997340;28;20208;-81
2021/01/13 09:33:09;;;;;;;14.55;7.78;;;6.90;99.90;;;;;;4997385;28;20283;-82
2021/01/13 09:35:41;;;;;;;9.93;7.28;;;7.00;99.90;;;;;;4997116;28;20235;-81
2021/01/13 09:38:09;;;;;;;9.30;6.50;;;6.90;99.90;;;;;;4997063;28;20197;-81
2021/01/13 09:41:07;;;;;;;10.70;6.93;;;6.90;99.90;;;;;;4997194;28;20247;-81
2021/01/13 09:43:35;;;;;;;10.98;6.95;;;7.00;99.90;;;;;;4996987;28;20205;-81
2021/01/13 09:46:04;;;;;;;9.50;7.40;;;6.70;99.90;;;;;;4997059;28;20231;-82
2021/01/13 09:48:32;;;;;;;16.25;7.63;;;6.80;99.90;;;;;;4996734;28;20201;-82
2021/01/13 09:51:01;;;;;;;13.50;7.45;;;7.00;99.90;;;;;;4996783;28;20204;-82
2021/01/13 09:53:31;;;;;;;24.00;8.07;;;7.00;99.90;;;;;;4996895;28;20263;-81
2021/01/13 09:56:09;;;;;;;10.25;7.07;;;6.90;99.90;;;;;;4996782;28;20239;-81
2021/01/13 09:58:41;;;;;;;9.48;7.65;;;6.80;99.90;;;;;;4996920;28;20192;-81
2021/01/13 10:01:10;;;;;;;11.27;7.50;;;7.00;99.90;;;;;;4996817;28;20676;-81
2021/01/13 10:03:37;;;;;;;14.80;9.00;;;7.20;99.90;;;;;;4996747;28;20267;-84
2021/01/13 10:06:11;;;;;;;16.67;9.38;;;7.10;99.90;;;;;;4993144;28;20680;-84
2021/01/13 10:08:37;;;;;;;10.93;8.00;;;7.00;99.90;;;;;;4996805;28;20193;-83
2021/01/13 10:11:05;;;;;;;16.10;7.68;;;7.10;99.90;;;;;;4995438;28;20201;-84
2021/01/13 10:13:32;;;;;;;12.27;7.38;;;7.00;99.90;;;;;;4987507;28;20193;-84
2021/01/13 10:16:01;;;;;;;11.68;8.05;;;7.20;99.90;;;;;;4978510;28;20237;-82
2021/01/13 10:18:28;;;;;;;14.68;7.05;;;7.20;99.90;;;;;;4995974;28;20201;-82
2021/01/13 10:20:55;;;;;;;12.80;8.35;;;7.30;99.90;;;;;;4986691;28;20202;-83
2021/01/13 10:23:26;;;;;;;12.23;8.60;;;7.40;99.90;;;;;;4995978;28;20660;-82
2021/01/13 10:26:04;;;;;;;12.90;8.18;;;7.20;99.90;;;;;;4995819;28;20201;-82
2021/01/13 10:28:30;;;;;;;16.27;8.55;;;7.10;99.90;;;;;;4995680;28;20570;-83
2021/01/13 10:30:58;;;;;;;9.45;7.75;;;7.20;99.90;;;;;;4996220;28;20193;-85
2021/01/13 10:33:45;;;;;;;14.23;7.70;;;7.20;99.90;;;;;;4995924;28;20200;-87
2021/01/13 10:36:33;;;;;;;9.98;7.03;;;7.20;99.90;;;;;;4981817;28;20240;-83
2021/01/13 10:39:00;;;;;;;13.15;6.93;;;7.10;99.90;;;;;;4974796;28;20233;-82
2021/01/13 10:41:31;;;;;;;12.20;8.50;;;7.10;99.90;;;;;;4978900;28;20612;-86
2021/01/13 10:44:02;;;;;;;14.68;8.98;;;7.10;99.90;;;;;;4975998;28;20197;-84
2021/01/13 10:46:48;;;;;;;12.80;8.80;;;7.00;99.90;;;;;;4982549;28;20224;-84
2021/01/13 10:49:20;;;;;;;13.55;9.18;;;7.10;99.90;;;;;;4995482;28;20211;-85
2021/01/13 10:51:48;;;;;;;12.77;9.25;;;7.00;99.90;;;;;;4995436;28;20599;-85
2021/01/13 10:54:18;;;;;;;14.98;9.30;;;7.10;99.90;;;;;;4995647;28;20197;-84
2021/01/13 10:56:45;;;;;;;15.32;8.88;;;7.10;99.90;;;;;;4995925;28;20193;-85
2021/01/13 10:59:15;;;;;;;11.98;9.73;;;7.00;99.90;;;;;;4995394;28;20208;-86
2021/01/13 11:01:46;;;;;;;18.38;9.88;;;7.10;99.90;;;;;;4983177;28;20189;-86
2021/01/13 11:04:33;;;;;;;16.45;10.30;;;7.30;99.90;;;;;;4975787;28;20256;-87
2021/01/13 11:07:04;;;;;;;15.93;11.15;;;7.10;99.90;;;;;;4975656;28;20253;-86
2021/01/13 11:09:32;;;;;;;19.95;12.10;;;6.90;99.90;;;;;;4975624;28;20205;-84
2021/01/13 11:11:59;;;;;;;13.43;11.88;;;7.10;99.90;;;;;;4975282;28;20198;-86
2021/01/13 11:14:30;;;;;;;15.70;11.95;;;7.20;99.90;;;;;;4975913;28;20209;-86
2021/01/13 11:17:05;;;;;;;15.02;12.05;;;7.10;99.90;;;;;;4986594;28;20626;-83
2021/01/13 11:19:32;;;;;;;16.67;11.00;;;7.30;99.90;;;;;;4994782;28;20203;-84
2021/01/13 11:21:59;;;;;;;14.68;11.27;;;7.30;99.90;;;;;;4982687;28;20252;-81
2021/01/13 11:24:34;;;;;;;19.20;12.02;;;7.30;99.90;;;;;;4981611;28;20211;-81
2021/01/13 11:27:03;;;;;;;12.43;10.93;;;7.20;99.90;;;;;;4994527;28;20204;-84
2021/01/13 11:29:31;;;;;;;17.10;11.23;;;7.30;99.90;;;;;;4994784;28;20197;-85
2021/01/13 11:32:00;;;;;;;12.80;11.02;;;7.40;99.90;;;;;;4994422;28;20201;-83
2021/01/13 11:34:28;;;;;;;21.95;12.98;;;7.30;99.90;;;;;;4994458;28;20193;-84
2021/01/13 11:37:16;;;;;;;17.77;12.43;;;7.40;99.90;;;;;;4994492;28;20213;-82
2021/01/13 11:39:46;;;;;;;21.33;13.98;;;7.20;99.90;;;;;;4983420;28;20197;-82
2021/01/13 11:42:21;;;;;;;16.65;12.40;;;7.10;99.90;;;;;;4994268;28;20208;-85
2021/01/13 11:45:04;;;;;;;17.45;13.48;;;7.00;99.90;;;;;;4994356;28;20220;-83
2021/01/13 11:47:35;;;;;;;18.55;11.55;;;7.00;99.90;;;;;;4994036;28;20722;-82
2021/01/13 11:50:11;;;;;;;14.60;12.57;;;7.00;99.90;;;;;;4993593;28;20204;-83
2021/01/13 11:52:41;;;;;;;14.93;12.95;;;7.20;99.90;;;;;;4993979;28;20196;-81
2021/01/13 11:55:09;;;;;;;13.27;11.63;;;7.20;99.90;;;;;;4993821;28;20235;-80
2021/01/13 11:57:36;;;;;;;19.40;13.45;;;7.30;99.90;;;;;;4990891;28;20193;-82
2021/01/13 12:00:15;;;;;;;17.48;12.05;;;7.40;99.90;;;;;;4977494;28;20197;-84
2021/01/13 12:02:46;;;;;;;20.98;11.82;;;7.30;99.90;;;;;;4990761;28;20204;-83
2021/01/13 12:05:28;;;;;;;13.95;10.63;;;7.40;99.90;;;;;;4993833;28;20201;-81
2021/01/13 12:07:59;;;;;;;16.60;11.68;;;7.40;99.90;;;;;;4993685;28;20209;-80
2021/01/13 12:10:33;;;;;;;16.98;11.32;;;7.50;99.90;;;;;;4993806;28;20204;-82
2021/01/13 12:13:18;;;;;;;17.15;11.23;;;7.30;99.90;;;;;;4993820;28;20208;-82
2021/01/13 12:15:56;;;;;;;21.48;12.20;;;7.40;99.90;;;;;;4993598;28;20229;-80
2021/01/13 12:18:26;;;;;;;15.60;12.05;;;7.70;99.90;;;;;;4993987;28;20259;-82
2021/01/13 12:20:54;;;;;;;15.45;11.98;;;7.90;99.90;;;;;;4993464;28;20197;-82
2021/01/13 12:23:30;;;;;;;12.70;11.10;;;7.80;99.90;;;;;;4993669;28;20203;-83
2021/01/13 12:26:14;;;;;;;14.80;10.23;;;7.90;99.90;;;;;;4993879;28;20200;-82
2021/01/13 12:28:41;;;;;;;14.27;12.40;;;7.60;99.90;;;;;;4992619;28;20207;-82
2021/01/13 12:31:08;;;;;;;16.63;11.68;;;7.60;99.90;;;;;;4993441;28;20201;-82
2021/01/13 12:33:39;;;;;;;18.75;10.95;;;7.80;99.90;;;;;;4992246;28;20197;-83
2021/01/13 12:36:16;;;;;;;13.93;11.75;;;7.60;99.90;;;;;;4993361;28;20704;-83
2021/01/13 12:38:46;;;;;;;13.02;9.55;;;7.30;99.90;;;;;;4993578;28;20715;-83
2021/01/13 12:41:18;;;;;;;11.73;9.95;;;7.00;99.90;;;;;;4993167;28;20200;-83
2021/01/13 12:43:45;;;;;;;12.15;10.48;;;7.00;99.90;;;;;;4993424;28;20200;-83
2021/01/13 12:46:11;;;;;;;16.48;10.88;;;7.20;99.90;;;;;;4993488;28;20282;-83
2021/01/13 12:48:38;;;;;;;19.13;10.10;;;7.40;99.90;;;;;;4988554;28;20193;-82
2021/01/13 12:51:07;;;;;;;18.52;10.65;;;7.40;99.90;;;;;;4981194;28;20196;-84
2021/01/13 12:53:39;;;;;;;12.32;10.82;;;7.00;99.90;;;;;;4993354;28;20205;-83
2021/01/13 12:56:06;;;;;;;11.43;9.27;;;7.20;99.90;;;;;;4993355;28;20232;-83
2021/01/13 12:58:32;;;;;;;10.02;8.80;;;7.40;99.90;;;;;;4993363;28;20203;-83
2021/01/13 13:00:58;;;;;;;21.38;8.20;;;7.50;99.90;;;;;;4993559;28;20201;-83
2021/01/13 13:03:24;;;;;;;10.05;8.77;;;7.60;99.90;;;;;;4993363;28;20231;-83
2021/01/13 13:05:52;;;;;;;15.98;8.80;;;7.70;99.90;;;;;;4993285;28;20244;-83
2021/01/13 13:08:18;;;;;;;13.57;8.57;;;7.50;99.90;;;;;;4993250;28;20197;-83
2021/01/13 13:10:44;;;;;;;21.05;8.48;;;7.40;99.90;;;;;;4993217;28;20201;-83
2021/01/13 13:13:10;;;;;;;14.85;7.88;;;7.60;99.90;;;;;;4993514;28;20566;-83
2021/01/13 13:15:37;;;;;;;15.50;9.27;;;7.70;99.90;;;;;;4993078;28;20641;-83